TAM3840 SBBR-SBSN
Flight info
| Callsign | TAM3840 |
|---|---|
| Flight time | 2h 29m |
| Altitude | 36000 |
| Route | ESBUX6A ILKUS UL452 TORAX DCT STM DCT |
| Aircraft | A320/M-SDE3FGHIRWY/LB1 |
Departure
| Time | 2026-04-20 17:56 |
|---|---|
| Airport | Presidente Juscelino Kubitschek International Airport (SBBR) |
Arrival
| Time | 2026-04-20 20:26 |
|---|---|
| Airport | Santarém - Maestro Wilson Fonseca International Airport (SBSN) |
| Time | Latitude | Longitude | Altitude | Speed | Heading |
|---|---|---|---|---|---|
| 2026-04-20 17:35 | -15.87131 | -47.91906 | 3477 ft | 0 kts | 177° |
| 2026-04-20 17:44 | -15.87128 | -47.91906 | 3477 ft | 2 kts | 177° |
| 2026-04-20 17:44 | -15.87102 | -47.91908 | 3474 ft | 4 kts | 170° |
| 2026-04-20 17:44 | -15.87077 | -47.91916 | 3477 ft | 4 kts | 148° |
| 2026-04-20 17:44 | -15.87060 | -47.91926 | 3477 ft | 4 kts | 169° |
| 2026-04-20 17:45 | -15.87047 | -47.91928 | 3477 ft | 3 kts | 176° |
| 2026-04-20 17:45 | -15.87070 | -47.91921 | 3477 ft | 4 kts | 139° |
| 2026-04-20 17:45 | -15.87072 | -47.91898 | 3477 ft | 3 kts | 86° |
| 2026-04-20 17:45 | -15.87070 | -47.91871 | 3474 ft | 4 kts | 86° |
| 2026-04-20 17:46 | -15.87068 | -47.91843 | 3474 ft | 4 kts | 86° |
| 2026-04-20 17:46 | -15.87067 | -47.91826 | 3477 ft | 0 kts | 86° |
| 2026-04-20 17:48 | -15.87066 | -47.91804 | 3477 ft | 7 kts | 86° |
| 2026-04-20 17:48 | -15.87061 | -47.91728 | 3477 ft | 14 kts | 86° |
| 2026-04-20 17:49 | -15.87054 | -47.91619 | 3475 ft | 9 kts | 84° |
| 2026-04-20 17:49 | -15.87007 | -47.91595 | 3475 ft | 8 kts | 356° |
| 2026-04-20 17:49 | -15.86953 | -47.91599 | 3475 ft | 10 kts | 356° |
| 2026-04-20 17:49 | -15.86861 | -47.91606 | 3475 ft | 15 kts | 356° |
| 2026-04-20 17:50 | -15.86753 | -47.91613 | 3472 ft | 16 kts | 356° |
| 2026-04-20 17:50 | -15.86637 | -47.91620 | 3472 ft | 15 kts | 355° |
| 2026-04-20 17:50 | -15.86563 | -47.91626 | 3469 ft | 10 kts | 356° |
| 2026-04-20 17:50 | -15.86503 | -47.91631 | 3466 ft | 9 kts | 351° |
| 2026-04-20 17:51 | -15.86482 | -47.91668 | 3466 ft | 4 kts | 265° |
| 2026-04-20 17:51 | -15.86483 | -47.91696 | 3467 ft | 6 kts | 268° |
| 2026-04-20 17:51 | -15.86486 | -47.91756 | 3468 ft | 11 kts | 267° |
| 2026-04-20 17:51 | -15.86493 | -47.91855 | 3469 ft | 17 kts | 266° |
| 2026-04-20 17:52 | -15.86501 | -47.91980 | 3468 ft | 16 kts | 265° |
| 2026-04-20 17:52 | -15.86509 | -47.92086 | 3466 ft | 14 kts | 266° |
| 2026-04-20 17:52 | -15.86513 | -47.92174 | 3468 ft | 11 kts | 266° |
| 2026-04-20 17:52 | -15.86518 | -47.92240 | 3469 ft | 7 kts | 265° |
| 2026-04-20 17:53 | -15.86520 | -47.92280 | 3470 ft | 4 kts | 266° |
| 2026-04-20 17:53 | -15.86524 | -47.92334 | 3472 ft | 13 kts | 266° |
| 2026-04-20 17:53 | -15.86531 | -47.92443 | 3474 ft | 14 kts | 266° |
| 2026-04-20 17:53 | -15.86537 | -47.92536 | 3475 ft | 12 kts | 266° |
| 2026-04-20 17:54 | -15.86543 | -47.92639 | 3467 ft | 16 kts | 266° |
| 2026-04-20 17:54 | -15.86549 | -47.92744 | 3461 ft | 5 kts | 271° |
| 2026-04-20 17:54 | -15.86527 | -47.92762 | 3459 ft | 4 kts | 341° |
| 2026-04-20 17:54 | -15.86489 | -47.92765 | 3462 ft | 5 kts | 358° |
| 2026-04-20 17:55 | -15.86459 | -47.92767 | 3460 ft | 5 kts | 357° |
| 2026-04-20 17:55 | -15.86400 | -47.92750 | 3458 ft | 11 kts | 37° |
| 2026-04-20 17:55 | -15.86355 | -47.92687 | 3458 ft | 11 kts | 73° |
| 2026-04-20 17:55 | -15.86342 | -47.92512 | 3463 ft | 53 kts | 86° |
| 2026-04-20 17:56 | -15.86302 | -47.91893 | 3467 ft | 117 kts | 86° |
| 2026-04-20 17:56 | -15.86234 | -47.90853 | 3481 ft | 168 kts | 86° |
| 2026-04-20 17:56 | -15.86153 | -47.89609 | 4024 ft | 175 kts | 86° |
| 2026-04-20 17:56 | -15.86065 | -47.88307 | 4353 ft | 191 kts | 87° |
| 2026-04-20 17:57 | -15.85971 | -47.86856 | 4503 ft | 212 kts | 86° |
| 2026-04-20 17:57 | -15.85871 | -47.85244 | 4676 ft | 236 kts | 86° |
| 2026-04-20 17:57 | -15.85758 | -47.83457 | 5015 ft | 258 kts | 87° |
| 2026-04-20 17:57 | -15.85634 | -47.81548 | 5589 ft | 269 kts | 87° |
| 2026-04-20 17:58 | -15.85497 | -47.79591 | 6180 ft | 274 kts | 83° |
| 2026-04-20 17:58 | -15.84937 | -47.77692 | 6845 ft | 280 kts | 61° |
| 2026-04-20 17:58 | -15.83666 | -47.76151 | 7512 ft | 285 kts | 37° |
| 2026-04-20 17:58 | -15.81875 | -47.75260 | 8165 ft | 290 kts | 13° |
| 2026-04-20 17:59 | -15.79877 | -47.75203 | 8826 ft | 296 kts | 348° |
| 2026-04-20 17:59 | -15.77938 | -47.75946 | 9522 ft | 301 kts | 335° |
| 2026-04-20 17:59 | -15.76027 | -47.76875 | 10061 ft | 311 kts | 335° |
| 2026-04-20 17:59 | -15.74000 | -47.77871 | 10227 ft | 333 kts | 335° |
| 2026-04-20 18:00 | -15.71853 | -47.78928 | 10572 ft | 347 kts | 335° |
| 2026-04-20 18:00 | -15.69662 | -47.80004 | 11178 ft | 350 kts | 335° |
| 2026-04-20 18:00 | -15.67446 | -47.81087 | 11817 ft | 353 kts | 334° |
| 2026-04-20 18:00 | -15.65251 | -47.82185 | 12502 ft | 356 kts | 334° |
| 2026-04-20 18:01 | -15.58344 | -47.85784 | 14276 ft | 366 kts | 333° |
| 2026-04-20 18:01 | -15.56058 | -47.86984 | 14770 ft | 370 kts | 333° |
| 2026-04-20 18:02 | -15.53746 | -47.88189 | 15248 ft | 375 kts | 333° |
| 2026-04-20 18:02 | -15.51405 | -47.89404 | 15701 ft | 379 kts | 333° |
| 2026-04-20 18:02 | -15.49031 | -47.90632 | 16189 ft | 382 kts | 334° |
| 2026-04-20 18:02 | -15.46633 | -47.91868 | 16656 ft | 386 kts | 333° |
| 2026-04-20 18:03 | -15.44219 | -47.93112 | 17126 ft | 390 kts | 333° |
| 2026-04-20 18:03 | -15.41782 | -47.94369 | 17584 ft | 393 kts | 333° |
| 2026-04-20 18:03 | -15.40159 | -47.95209 | 17867 ft | 395 kts | 333° |
| 2026-04-20 18:03 | -15.36880 | -47.96905 | 18443 ft | 400 kts | 333° |
| 2026-04-20 18:04 | -15.34379 | -47.98201 | 18830 ft | 403 kts | 333° |
| 2026-04-20 18:04 | -15.31864 | -47.99502 | 19247 ft | 406 kts | 333° |
| 2026-04-20 18:04 | -15.29332 | -48.00810 | 19675 ft | 408 kts | 333° |
| 2026-04-20 18:04 | -15.26785 | -48.02123 | 20105 ft | 410 kts | 333° |
| 2026-04-20 18:05 | -15.21653 | -48.04766 | 20972 ft | 414 kts | 333° |
| 2026-04-20 18:05 | -15.19067 | -48.06101 | 21402 ft | 417 kts | 333° |
| 2026-04-20 18:05 | -15.16464 | -48.07444 | 21832 ft | 419 kts | 333° |
| 2026-04-20 18:06 | -15.13841 | -48.08794 | 22248 ft | 422 kts | 333° |
| 2026-04-20 18:06 | -15.11208 | -48.10149 | 22662 ft | 424 kts | 333° |
| 2026-04-20 18:06 | -15.08591 | -48.11495 | 23068 ft | 427 kts | 333° |
| 2026-04-20 18:06 | -15.05930 | -48.12867 | 23475 ft | 430 kts | 332° |
| 2026-04-20 18:07 | -15.03244 | -48.14250 | 23807 ft | 432 kts | 332° |
| 2026-04-20 18:07 | -15.00549 | -48.15641 | 24122 ft | 434 kts | 332° |
| 2026-04-20 18:07 | -14.97838 | -48.17042 | 24440 ft | 437 kts | 332° |
| 2026-04-20 18:07 | -14.95112 | -48.18446 | 24751 ft | 439 kts | 332° |
| 2026-04-20 18:08 | -14.92368 | -48.19856 | 25042 ft | 441 kts | 332° |
| 2026-04-20 18:08 | -14.89630 | -48.21305 | 25329 ft | 443 kts | 330° |
| 2026-04-20 18:08 | -14.86905 | -48.22819 | 25624 ft | 446 kts | 329° |
| 2026-04-20 18:08 | -14.84187 | -48.24372 | 25906 ft | 448 kts | 328° |
| 2026-04-20 18:09 | -14.81462 | -48.25944 | 26188 ft | 450 kts | 328° |
| 2026-04-20 18:09 | -14.78753 | -48.27502 | 26458 ft | 452 kts | 328° |
| 2026-04-20 18:09 | -14.75996 | -48.29074 | 26725 ft | 454 kts | 329° |
| 2026-04-20 18:09 | -14.73214 | -48.30645 | 26992 ft | 456 kts | 329° |
| 2026-04-20 18:10 | -14.70416 | -48.32216 | 27252 ft | 459 kts | 329° |
| 2026-04-20 18:10 | -14.67604 | -48.33787 | 27516 ft | 461 kts | 329° |
| 2026-04-20 18:10 | -14.64778 | -48.35366 | 27769 ft | 463 kts | 329° |
| 2026-04-20 18:10 | -14.61941 | -48.36951 | 28023 ft | 465 kts | 328° |
| 2026-04-20 18:11 | -14.59089 | -48.38544 | 28255 ft | 467 kts | 328° |
| 2026-04-20 18:11 | -14.56226 | -48.40147 | 28491 ft | 469 kts | 328° |
| 2026-04-20 18:11 | -14.53357 | -48.41756 | 28743 ft | 470 kts | 328° |
| 2026-04-20 18:11 | -14.50477 | -48.43376 | 28965 ft | 472 kts | 328° |
| 2026-04-20 18:12 | -14.48565 | -48.44449 | 29124 ft | 474 kts | 328° |
| 2026-04-20 18:12 | -14.44721 | -48.46600 | 29429 ft | 476 kts | 328° |
| 2026-04-20 18:12 | -14.41802 | -48.48230 | 29660 ft | 478 kts | 328° |
| 2026-04-20 18:12 | -14.38875 | -48.49866 | 29878 ft | 479 kts | 328° |
| 2026-04-20 18:13 | -14.35938 | -48.51510 | 30061 ft | 481 kts | 328° |
| 2026-04-20 18:13 | -14.32993 | -48.53157 | 30251 ft | 482 kts | 328° |
| 2026-04-20 18:13 | -14.30045 | -48.54807 | 30430 ft | 483 kts | 328° |
| 2026-04-20 18:13 | -14.27086 | -48.56459 | 30596 ft | 484 kts | 328° |
| 2026-04-20 18:14 | -14.24123 | -48.58109 | 30831 ft | 483 kts | 328° |
| 2026-04-20 18:14 | -14.21166 | -48.59756 | 31083 ft | 482 kts | 328° |
| 2026-04-20 18:14 | -14.18218 | -48.61401 | 31334 ft | 481 kts | 328° |
| 2026-04-20 18:14 | -14.15317 | -48.63021 | 31587 ft | 480 kts | 327° |
| 2026-04-20 18:15 | -14.12379 | -48.64662 | 31850 ft | 479 kts | 327° |
| 2026-04-20 18:15 | -14.09453 | -48.66298 | 32119 ft | 478 kts | 327° |
| 2026-04-20 18:15 | -14.06533 | -48.67929 | 32373 ft | 477 kts | 327° |
| 2026-04-20 18:15 | -14.03617 | -48.69559 | 32628 ft | 476 kts | 327° |
| 2026-04-20 18:16 | -14.00711 | -48.71180 | 32898 ft | 475 kts | 327° |
| 2026-04-20 18:16 | -13.97805 | -48.72799 | 33163 ft | 474 kts | 327° |
| 2026-04-20 18:16 | -13.94904 | -48.74412 | 33416 ft | 474 kts | 327° |
| 2026-04-20 18:16 | -13.92010 | -48.76018 | 33700 ft | 472 kts | 327° |
| 2026-04-20 18:17 | -13.89117 | -48.77626 | 33966 ft | 471 kts | 327° |
| 2026-04-20 18:17 | -13.86279 | -48.79206 | 34178 ft | 470 kts | 327° |
| 2026-04-20 18:17 | -13.83403 | -48.80809 | 34395 ft | 470 kts | 327° |
| 2026-04-20 18:17 | -13.80532 | -48.82407 | 34594 ft | 469 kts | 327° |
| 2026-04-20 18:18 | -13.77670 | -48.84001 | 34788 ft | 468 kts | 327° |
| 2026-04-20 18:18 | -13.74808 | -48.85595 | 34988 ft | 468 kts | 327° |
| 2026-04-20 18:18 | -13.71950 | -48.87184 | 35191 ft | 467 kts | 327° |
| 2026-04-20 18:18 | -13.69092 | -48.88770 | 35384 ft | 466 kts | 327° |
| 2026-04-20 18:19 | -13.66239 | -48.90356 | 35579 ft | 466 kts | 327° |
| 2026-04-20 18:19 | -13.63393 | -48.91936 | 35765 ft | 465 kts | 327° |
| 2026-04-20 18:19 | -13.60585 | -48.93493 | 35879 ft | 464 kts | 327° |
| 2026-04-20 18:19 | -13.57749 | -48.95064 | 35909 ft | 462 kts | 327° |
| 2026-04-20 18:20 | -13.52102 | -48.98198 | 35904 ft | 461 kts | 327° |
| 2026-04-20 18:20 | -13.46461 | -49.01338 | 35904 ft | 461 kts | 327° |
| 2026-04-20 18:21 | -13.40817 | -49.04468 | 35906 ft | 461 kts | 327° |
| 2026-04-20 18:21 | -13.35208 | -49.07573 | 35900 ft | 461 kts | 328° |
| 2026-04-20 18:22 | -13.29561 | -49.10696 | 35891 ft | 461 kts | 328° |
| 2026-04-20 18:22 | -13.23920 | -49.13820 | 35890 ft | 461 kts | 328° |
| 2026-04-20 18:23 | -13.18280 | -49.16942 | 35892 ft | 461 kts | 328° |
| 2026-04-20 18:23 | -13.12638 | -49.20062 | 35893 ft | 461 kts | 328° |
| 2026-04-20 18:24 | -13.07038 | -49.23163 | 35886 ft | 460 kts | 328° |
| 2026-04-20 18:24 | -13.01397 | -49.26277 | 35892 ft | 460 kts | 328° |
| 2026-04-20 18:25 | -12.95756 | -49.29374 | 35883 ft | 460 kts | 328° |
| 2026-04-20 18:25 | -12.90113 | -49.32477 | 35878 ft | 460 kts | 328° |
| 2026-04-20 18:26 | -12.84473 | -49.35589 | 35878 ft | 460 kts | 328° |
| 2026-04-20 18:26 | -12.78882 | -49.38682 | 35871 ft | 460 kts | 328° |
| 2026-04-20 18:27 | -12.73247 | -49.41788 | 35880 ft | 460 kts | 328° |
| 2026-04-20 18:27 | -12.67606 | -49.44893 | 35881 ft | 461 kts | 329° |
| 2026-04-20 18:28 | -12.62916 | -49.47479 | 35879 ft | 461 kts | 328° |
| 2026-04-20 18:28 | -12.56354 | -49.51092 | 35882 ft | 461 kts | 329° |
| 2026-04-20 18:29 | -12.50705 | -49.54182 | 35883 ft | 461 kts | 329° |
| 2026-04-20 18:29 | -12.46005 | -49.56757 | 35882 ft | 461 kts | 329° |
| 2026-04-20 18:30 | -12.40360 | -49.59865 | 35885 ft | 461 kts | 329° |
| 2026-04-20 18:30 | -12.33791 | -49.63464 | 35893 ft | 461 kts | 329° |
| 2026-04-20 18:31 | -12.29062 | -49.66059 | 35892 ft | 461 kts | 329° |
| 2026-04-20 18:31 | -12.23458 | -49.69142 | 35892 ft | 461 kts | 329° |
| 2026-04-20 18:32 | -12.17811 | -49.72236 | 35890 ft | 460 kts | 329° |
| 2026-04-20 18:32 | -12.12166 | -49.75324 | 35890 ft | 460 kts | 329° |
| 2026-04-20 18:33 | -12.06523 | -49.78414 | 35889 ft | 460 kts | 330° |
| 2026-04-20 18:33 | -12.00925 | -49.81480 | 35892 ft | 460 kts | 330° |
| 2026-04-20 18:34 | -11.95290 | -49.84559 | 35894 ft | 460 kts | 330° |
| 2026-04-20 18:34 | -11.89647 | -49.87645 | 35894 ft | 459 kts | 330° |
| 2026-04-20 18:35 | -11.84011 | -49.90726 | 35894 ft | 460 kts | 330° |
| 2026-04-20 18:35 | -11.78410 | -49.93787 | 35895 ft | 460 kts | 330° |
| 2026-04-20 18:36 | -11.72776 | -49.96861 | 35892 ft | 459 kts | 330° |
| 2026-04-20 18:36 | -11.67133 | -49.99933 | 35887 ft | 459 kts | 330° |
| 2026-04-20 18:37 | -11.61494 | -50.03004 | 35889 ft | 459 kts | 330° |
| 2026-04-20 18:37 | -11.55887 | -50.06059 | 35889 ft | 460 kts | 330° |
| 2026-04-20 18:38 | -11.50254 | -50.09140 | 35890 ft | 460 kts | 330° |
| 2026-04-20 18:38 | -11.44618 | -50.12215 | 35890 ft | 459 kts | 330° |
| 2026-04-20 18:39 | -11.38977 | -50.15288 | 35889 ft | 459 kts | 330° |
| 2026-04-20 18:39 | -11.33340 | -50.18353 | 35892 ft | 459 kts | 330° |
| 2026-04-20 18:40 | -11.27741 | -50.21390 | 35892 ft | 459 kts | 330° |
| 2026-04-20 18:40 | -11.22103 | -50.24463 | 35889 ft | 459 kts | 330° |
| 2026-04-20 18:41 | -11.16464 | -50.27526 | 35884 ft | 459 kts | 330° |
| 2026-04-20 18:41 | -11.10820 | -50.30590 | 35885 ft | 460 kts | 330° |
| 2026-04-20 18:42 | -11.05215 | -50.33635 | 35885 ft | 460 kts | 330° |
| 2026-04-20 18:42 | -10.99565 | -50.36693 | 35887 ft | 460 kts | 330° |
| 2026-04-20 18:43 | -10.93912 | -50.39747 | 35891 ft | 459 kts | 330° |
| 2026-04-20 18:43 | -10.88262 | -50.42792 | 35889 ft | 460 kts | 330° |
| 2026-04-20 18:44 | -10.82649 | -50.45822 | 35885 ft | 460 kts | 330° |
| 2026-04-20 18:44 | -10.77000 | -50.48879 | 35884 ft | 460 kts | 331° |
| 2026-04-20 18:45 | -10.71357 | -50.51931 | 35888 ft | 459 kts | 331° |
| 2026-04-20 18:45 | -10.65710 | -50.54980 | 35890 ft | 459 kts | 331° |
| 2026-04-20 18:46 | -10.60062 | -50.58025 | 35891 ft | 459 kts | 331° |
| 2026-04-20 18:46 | -10.54454 | -50.61046 | 35892 ft | 459 kts | 331° |
| 2026-04-20 18:47 | -10.48808 | -50.64083 | 35891 ft | 459 kts | 331° |
| 2026-04-20 18:47 | -10.43161 | -50.67114 | 35892 ft | 459 kts | 332° |
| 2026-04-20 18:48 | -10.37475 | -50.70065 | 35887 ft | 459 kts | 332° |
| 2026-04-20 18:48 | -10.31805 | -50.72961 | 35890 ft | 459 kts | 332° |
| 2026-04-20 18:49 | -10.26104 | -50.75893 | 35892 ft | 459 kts | 332° |
| 2026-04-20 18:49 | -10.20414 | -50.78839 | 35891 ft | 459 kts | 332° |
| 2026-04-20 18:50 | -10.14722 | -50.81781 | 35886 ft | 459 kts | 332° |
| 2026-04-20 18:50 | -10.09065 | -50.84701 | 35886 ft | 459 kts | 332° |
| 2026-04-20 18:51 | -10.03370 | -50.87649 | 35890 ft | 460 kts | 332° |
| 2026-04-20 18:51 | -9.97666 | -50.90596 | 35895 ft | 460 kts | 332° |
| 2026-04-20 18:52 | -9.91962 | -50.93534 | 35883 ft | 460 kts | 332° |
| 2026-04-20 18:52 | -9.86292 | -50.96461 | 35880 ft | 461 kts | 332° |
| 2026-04-20 18:53 | -9.80574 | -50.99406 | 35883 ft | 461 kts | 332° |
| 2026-04-20 18:53 | -9.74856 | -51.02349 | 35887 ft | 459 kts | 332° |
| 2026-04-20 18:54 | -9.69155 | -51.05278 | 35878 ft | 460 kts | 332° |
| 2026-04-20 18:54 | -9.63478 | -51.08208 | 35870 ft | 461 kts | 332° |
| 2026-04-20 18:55 | -9.57753 | -51.11169 | 35867 ft | 462 kts | 333° |
| 2026-04-20 18:55 | -9.52016 | -51.14113 | 35862 ft | 462 kts | 332° |
| 2026-04-20 18:56 | -9.46277 | -51.17058 | 35864 ft | 463 kts | 332° |
| 2026-04-20 18:56 | -9.40572 | -51.19990 | 35876 ft | 463 kts | 333° |
| 2026-04-20 18:57 | -9.34838 | -51.22939 | 35891 ft | 462 kts | 333° |
| 2026-04-20 18:57 | -9.29113 | -51.25884 | 35886 ft | 461 kts | 333° |
| 2026-04-20 18:58 | -9.23395 | -51.28816 | 35891 ft | 460 kts | 333° |
| 2026-04-20 18:58 | -9.17726 | -51.31726 | 35892 ft | 460 kts | 333° |
| 2026-04-20 18:59 | -9.12016 | -51.34663 | 35891 ft | 460 kts | 333° |
| 2026-04-20 18:59 | -9.06306 | -51.37585 | 35891 ft | 460 kts | 333° |
| 2026-04-20 19:00 | -9.00598 | -51.40507 | 35889 ft | 460 kts | 333° |
| 2026-04-20 19:00 | -8.94889 | -51.43435 | 35896 ft | 460 kts | 333° |
| 2026-04-20 19:01 | -8.89224 | -51.46349 | 35900 ft | 460 kts | 333° |
| 2026-04-20 19:01 | -8.83518 | -51.49266 | 35901 ft | 459 kts | 333° |
| 2026-04-20 19:02 | -8.77817 | -51.52183 | 35901 ft | 459 kts | 333° |
| 2026-04-20 19:02 | -8.72123 | -51.55100 | 35901 ft | 459 kts | 333° |
| 2026-04-20 19:03 | -8.66464 | -51.57990 | 35896 ft | 459 kts | 333° |
| 2026-04-20 19:03 | -8.60771 | -51.60902 | 35894 ft | 458 kts | 333° |
| 2026-04-20 19:04 | -8.55085 | -51.63817 | 35895 ft | 458 kts | 333° |
| 2026-04-20 19:04 | -8.49392 | -51.66727 | 35894 ft | 458 kts | 333° |
| 2026-04-20 19:05 | -8.43739 | -51.69616 | 35898 ft | 459 kts | 333° |
| 2026-04-20 19:05 | -8.38044 | -51.72522 | 35896 ft | 459 kts | 333° |
| 2026-04-20 19:06 | -8.32353 | -51.75425 | 35894 ft | 458 kts | 333° |
| 2026-04-20 19:06 | -8.26660 | -51.78334 | 35893 ft | 459 kts | 333° |
| 2026-04-20 19:07 | -8.20968 | -51.81239 | 35901 ft | 458 kts | 333° |
| 2026-04-20 19:07 | -8.15311 | -51.84123 | 35901 ft | 459 kts | 333° |
| 2026-04-20 19:08 | -8.06715 | -51.88358 | 35902 ft | 458 kts | 335° |
| 2026-04-20 19:09 | -8.00913 | -51.91017 | 35893 ft | 458 kts | 336° |
| 2026-04-20 19:09 | -7.95105 | -51.93667 | 35891 ft | 459 kts | 336° |
| 2026-04-20 19:10 | -7.89341 | -51.96345 | 35892 ft | 459 kts | 335° |
| 2026-04-20 19:10 | -7.83545 | -51.99055 | 35894 ft | 459 kts | 335° |
| 2026-04-20 19:11 | -7.77746 | -52.01764 | 35892 ft | 459 kts | 335° |
| 2026-04-20 19:11 | -7.71953 | -52.04470 | 35900 ft | 459 kts | 335° |
| 2026-04-20 19:12 | -7.66163 | -52.07169 | 35899 ft | 458 kts | 335° |
| 2026-04-20 19:12 | -7.60417 | -52.09844 | 35897 ft | 458 kts | 335° |
| 2026-04-20 19:13 | -7.54639 | -52.12537 | 35899 ft | 457 kts | 335° |
| 2026-04-20 19:13 | -7.48866 | -52.15224 | 35897 ft | 457 kts | 335° |
| 2026-04-20 19:14 | -7.43086 | -52.17914 | 35891 ft | 458 kts | 335° |
| 2026-04-20 19:14 | -7.37345 | -52.20593 | 35887 ft | 457 kts | 335° |
| 2026-04-20 19:15 | -7.31562 | -52.23277 | 35881 ft | 458 kts | 335° |
| 2026-04-20 19:15 | -7.25775 | -52.25965 | 35882 ft | 458 kts | 336° |
| 2026-04-20 19:16 | -7.19994 | -52.28654 | 35882 ft | 458 kts | 335° |
| 2026-04-20 19:16 | -7.14246 | -52.31323 | 35875 ft | 458 kts | 335° |
| 2026-04-20 19:17 | -7.08451 | -52.34022 | 35869 ft | 459 kts | 335° |
| 2026-04-20 19:17 | -7.02648 | -52.36718 | 35871 ft | 460 kts | 335° |
| 2026-04-20 19:18 | -6.96841 | -52.39414 | 35871 ft | 460 kts | 335° |
| 2026-04-20 19:18 | -6.91033 | -52.42112 | 35876 ft | 460 kts | 335° |
| 2026-04-20 19:19 | -6.85264 | -52.44790 | 35879 ft | 459 kts | 335° |
| 2026-04-20 19:19 | -6.79471 | -52.47476 | 35880 ft | 458 kts | 335° |
| 2026-04-20 19:20 | -6.73679 | -52.50161 | 35874 ft | 458 kts | 335° |
| 2026-04-20 19:20 | -6.67880 | -52.52846 | 35878 ft | 458 kts | 335° |
| 2026-04-20 19:21 | -6.62122 | -52.55515 | 35875 ft | 459 kts | 335° |
| 2026-04-20 19:21 | -6.56340 | -52.58196 | 35892 ft | 457 kts | 335° |
| 2026-04-20 19:22 | -6.50569 | -52.60872 | 35888 ft | 456 kts | 335° |
| 2026-04-20 19:22 | -6.44805 | -52.63539 | 35889 ft | 456 kts | 335° |
| 2026-04-20 19:23 | -6.39091 | -52.66191 | 35887 ft | 455 kts | 335° |
| 2026-04-20 19:23 | -6.33346 | -52.68852 | 35889 ft | 454 kts | 335° |
| 2026-04-20 19:24 | -6.27616 | -52.71508 | 35878 ft | 453 kts | 335° |
| 2026-04-20 19:24 | -6.21888 | -52.74161 | 35868 ft | 454 kts | 335° |
| 2026-04-20 19:25 | -6.16192 | -52.76798 | 35864 ft | 454 kts | 335° |
| 2026-04-20 19:25 | -6.10449 | -52.79448 | 35863 ft | 454 kts | 336° |
| 2026-04-20 19:26 | -6.04708 | -52.82101 | 35869 ft | 454 kts | 336° |
| 2026-04-20 19:26 | -5.98970 | -52.84759 | 35876 ft | 454 kts | 336° |
| 2026-04-20 19:27 | -5.93233 | -52.87408 | 35877 ft | 454 kts | 336° |
| 2026-04-20 19:27 | -5.87540 | -52.90037 | 35877 ft | 453 kts | 336° |
| 2026-04-20 19:28 | -5.81814 | -52.92684 | 35876 ft | 453 kts | 336° |
| 2026-04-20 19:28 | -5.76086 | -52.95332 | 35875 ft | 453 kts | 336° |
| 2026-04-20 19:29 | -5.70361 | -52.97983 | 35874 ft | 453 kts | 336° |
| 2026-04-20 19:29 | -5.64666 | -53.00620 | 35875 ft | 455 kts | 336° |
| 2026-04-20 19:30 | -5.58917 | -53.03272 | 35874 ft | 454 kts | 336° |
| 2026-04-20 19:30 | -5.53169 | -53.05913 | 35875 ft | 454 kts | 336° |
| 2026-04-20 19:31 | -5.47428 | -53.08559 | 35873 ft | 454 kts | 336° |
| 2026-04-20 19:31 | -5.41724 | -53.11195 | 35864 ft | 455 kts | 336° |
| 2026-04-20 19:32 | -5.35975 | -53.13851 | 35862 ft | 454 kts | 336° |
| 2026-04-20 19:32 | -5.30229 | -53.16507 | 35865 ft | 455 kts | 336° |
| 2026-04-20 19:33 | -5.24469 | -53.19155 | 35869 ft | 455 kts | 336° |
| 2026-04-20 19:33 | -5.18755 | -53.21786 | 35868 ft | 454 kts | 336° |
| 2026-04-20 19:34 | -5.13040 | -53.24423 | 35869 ft | 452 kts | 337° |
| 2026-04-20 19:34 | -5.07320 | -53.27056 | 35872 ft | 453 kts | 336° |
| 2026-04-20 19:35 | -5.01626 | -53.29688 | 35868 ft | 454 kts | 336° |
| 2026-04-20 19:35 | -4.95882 | -53.32337 | 35874 ft | 455 kts | 336° |
| 2026-04-20 19:36 | -4.90126 | -53.34987 | 35887 ft | 456 kts | 337° |
| 2026-04-20 19:36 | -4.84322 | -53.37666 | 35904 ft | 462 kts | 336° |
| 2026-04-20 19:37 | -4.78507 | -53.40337 | 35896 ft | 458 kts | 336° |
| 2026-04-20 19:37 | -4.72791 | -53.42970 | 35888 ft | 455 kts | 337° |
| 2026-04-20 19:38 | -4.67048 | -53.45600 | 35890 ft | 453 kts | 336° |
| 2026-04-20 19:38 | -4.61321 | -53.48244 | 35886 ft | 453 kts | 336° |
| 2026-04-20 19:39 | -4.55594 | -53.50883 | 35880 ft | 453 kts | 337° |
| 2026-04-20 19:39 | -4.49903 | -53.53508 | 35874 ft | 454 kts | 337° |
| 2026-04-20 19:40 | -4.44163 | -53.56141 | 35879 ft | 454 kts | 337° |
| 2026-04-20 19:40 | -4.38414 | -53.58786 | 35882 ft | 454 kts | 337° |
| 2026-04-20 19:41 | -4.32672 | -53.61431 | 35882 ft | 454 kts | 337° |
| 2026-04-20 19:41 | -4.26963 | -53.64052 | 35887 ft | 455 kts | 337° |
| 2026-04-20 19:42 | -4.21199 | -53.66697 | 35880 ft | 456 kts | 337° |
| 2026-04-20 19:42 | -4.15432 | -53.69343 | 35884 ft | 456 kts | 337° |
| 2026-04-20 19:43 | -4.09666 | -53.71993 | 35886 ft | 456 kts | 337° |
| 2026-04-20 19:43 | -4.03899 | -53.74645 | 35882 ft | 455 kts | 337° |
| 2026-04-20 19:44 | -3.98174 | -53.77273 | 35882 ft | 455 kts | 337° |
| 2026-04-20 19:44 | -3.92410 | -53.79923 | 35878 ft | 456 kts | 337° |
| 2026-04-20 19:45 | -3.86640 | -53.82571 | 35866 ft | 456 kts | 337° |
| 2026-04-20 19:45 | -3.83742 | -53.83901 | 35163 ft | 463 kts | 337° |
| 2026-04-20 19:45 | -3.80814 | -53.85246 | 34581 ft | 461 kts | 337° |
| 2026-04-20 19:45 | -3.77908 | -53.86583 | 34028 ft | 459 kts | 337° |
| 2026-04-20 19:46 | -3.75052 | -53.87892 | 33444 ft | 457 kts | 337° |
| 2026-04-20 19:46 | -3.72170 | -53.89210 | 32904 ft | 453 kts | 337° |
| 2026-04-20 19:46 | -3.69315 | -53.90515 | 32366 ft | 450 kts | 336° |
| 2026-04-20 19:46 | -3.66477 | -53.91814 | 31828 ft | 447 kts | 336° |
| 2026-04-20 19:47 | -3.63659 | -53.93108 | 31302 ft | 445 kts | 336° |
| 2026-04-20 19:47 | -3.60856 | -53.94395 | 30780 ft | 442 kts | 336° |
| 2026-04-20 19:47 | -3.58066 | -53.95676 | 30274 ft | 439 kts | 336° |
| 2026-04-20 19:47 | -3.55297 | -53.96949 | 29733 ft | 437 kts | 336° |
| 2026-04-20 19:48 | -3.52578 | -53.98198 | 29230 ft | 433 kts | 336° |
| 2026-04-20 19:48 | -3.49855 | -53.99446 | 28748 ft | 428 kts | 336° |
| 2026-04-20 19:48 | -3.47160 | -54.00682 | 28279 ft | 424 kts | 336° |
| 2026-04-20 19:48 | -3.44495 | -54.01904 | 27810 ft | 419 kts | 336° |
| 2026-04-20 19:49 | -3.41851 | -54.03119 | 27341 ft | 416 kts | 336° |
| 2026-04-20 19:49 | -3.39228 | -54.04325 | 26882 ft | 413 kts | 336° |
| 2026-04-20 19:49 | -3.36624 | -54.05524 | 26412 ft | 411 kts | 336° |
| 2026-04-20 19:49 | -3.34039 | -54.06713 | 25943 ft | 408 kts | 336° |
| 2026-04-20 19:50 | -3.31459 | -54.07899 | 25452 ft | 407 kts | 336° |
| 2026-04-20 19:50 | -3.28993 | -54.09207 | 24982 ft | 406 kts | 327° |
| 2026-04-20 19:50 | -3.26807 | -54.10989 | 24489 ft | 406 kts | 315° |
| 2026-04-20 19:50 | -3.24968 | -54.13139 | 23996 ft | 406 kts | 309° |
| 2026-04-20 19:51 | -3.23185 | -54.15326 | 23536 ft | 405 kts | 310° |
| 2026-04-20 19:51 | -3.21420 | -54.17482 | 22935 ft | 396 kts | 309° |
| 2026-04-20 19:51 | -3.19701 | -54.19580 | 22465 ft | 385 kts | 310° |
| 2026-04-20 19:51 | -3.18010 | -54.21647 | 21993 ft | 383 kts | 310° |
| 2026-04-20 19:52 | -3.16328 | -54.23704 | 21530 ft | 381 kts | 310° |
| 2026-04-20 19:52 | -3.14654 | -54.25755 | 21075 ft | 379 kts | 309° |
| 2026-04-20 19:52 | -3.12991 | -54.27793 | 20622 ft | 378 kts | 309° |
| 2026-04-20 19:52 | -3.11349 | -54.29801 | 20170 ft | 377 kts | 310° |
| 2026-04-20 19:53 | -3.09690 | -54.31828 | 19713 ft | 376 kts | 309° |
| 2026-04-20 19:53 | -3.08034 | -54.33850 | 19263 ft | 375 kts | 309° |
| 2026-04-20 19:53 | -3.06382 | -54.35866 | 18809 ft | 374 kts | 309° |
| 2026-04-20 19:53 | -3.04735 | -54.37875 | 18361 ft | 373 kts | 309° |
| 2026-04-20 19:54 | -3.03088 | -54.39884 | 17985 ft | 371 kts | 309° |
| 2026-04-20 19:54 | -3.01459 | -54.41872 | 17469 ft | 368 kts | 309° |
| 2026-04-20 19:54 | -2.99854 | -54.43838 | 17004 ft | 362 kts | 309° |
| 2026-04-20 19:54 | -2.98302 | -54.45748 | 16590 ft | 354 kts | 309° |
| 2026-04-20 19:55 | -2.96759 | -54.47639 | 16189 ft | 349 kts | 309° |
| 2026-04-20 19:55 | -2.95229 | -54.49509 | 15786 ft | 346 kts | 310° |
| 2026-04-20 19:55 | -2.93707 | -54.51366 | 15388 ft | 344 kts | 309° |
| 2026-04-20 19:55 | -2.92194 | -54.53206 | 14994 ft | 341 kts | 309° |
| 2026-04-20 19:56 | -2.91200 | -54.54417 | 14733 ft | 340 kts | 309° |
| 2026-04-20 19:56 | -2.89207 | -54.56853 | 14203 ft | 337 kts | 309° |
| 2026-04-20 19:56 | -2.87726 | -54.58666 | 13814 ft | 336 kts | 309° |
| 2026-04-20 19:56 | -2.86271 | -54.60447 | 13396 ft | 334 kts | 309° |
| 2026-04-20 19:57 | -2.84807 | -54.62236 | 12999 ft | 331 kts | 309° |
| 2026-04-20 19:57 | -2.83353 | -54.64013 | 12596 ft | 329 kts | 309° |
| 2026-04-20 19:57 | -2.81913 | -54.65775 | 12209 ft | 326 kts | 309° |
| 2026-04-20 19:57 | -2.80481 | -54.67522 | 11872 ft | 321 kts | 309° |
| 2026-04-20 19:58 | -2.79075 | -54.69237 | 11524 ft | 317 kts | 309° |
| 2026-04-20 19:58 | -2.77684 | -54.70936 | 11148 ft | 315 kts | 308° |
| 2026-04-20 19:58 | -2.76300 | -54.72626 | 10749 ft | 313 kts | 308° |
| 2026-04-20 19:58 | -2.74926 | -54.74306 | 10362 ft | 311 kts | 308° |
| 2026-04-20 19:59 | -2.73591 | -54.75938 | 10054 ft | 306 kts | 308° |
| 2026-04-20 19:59 | -2.72236 | -54.77592 | 9659 ft | 305 kts | 308° |
| 2026-04-20 19:59 | -2.70891 | -54.79230 | 9185 ft | 303 kts | 308° |
| 2026-04-20 19:59 | -2.69560 | -54.80852 | 8709 ft | 301 kts | 308° |
| 2026-04-20 20:00 | -2.68240 | -54.82459 | 8279 ft | 297 kts | 308° |
| 2026-04-20 20:00 | -2.66942 | -54.84042 | 7868 ft | 292 kts | 308° |
| 2026-04-20 20:00 | -2.65659 | -54.85610 | 7445 ft | 290 kts | 308° |
| 2026-04-20 20:00 | -2.64384 | -54.87169 | 7038 ft | 290 kts | 308° |
| 2026-04-20 20:01 | -2.63121 | -54.88713 | 6640 ft | 290 kts | 308° |
| 2026-04-20 20:01 | -2.61848 | -54.90267 | 6230 ft | 288 kts | 308° |
| 2026-04-20 20:01 | -2.60594 | -54.91797 | 5739 ft | 282 kts | 308° |
| 2026-04-20 20:01 | -2.59376 | -54.93283 | 5459 ft | 268 kts | 308° |
| 2026-04-20 20:02 | -2.58236 | -54.94668 | 5340 ft | 248 kts | 308° |
| 2026-04-20 20:02 | -2.57161 | -54.95975 | 5212 ft | 242 kts | 308° |
| 2026-04-20 20:02 | -2.56103 | -54.97268 | 5098 ft | 239 kts | 308° |
| 2026-04-20 20:02 | -2.55040 | -54.98574 | 4725 ft | 247 kts | 308° |
| 2026-04-20 20:03 | -2.53960 | -54.99930 | 4153 ft | 256 kts | 302° |
| 2026-04-20 20:03 | -2.53394 | -55.01541 | 4082 ft | 238 kts | 273° |
| 2026-04-20 20:03 | -2.53626 | -55.03168 | 4120 ft | 250 kts | 247° |
| 2026-04-20 20:03 | -2.54699 | -55.04596 | 4138 ft | 264 kts | 216° |
| 2026-04-20 20:04 | -2.56396 | -55.05275 | 4131 ft | 267 kts | 185° |
| 2026-04-20 20:04 | -2.58236 | -55.05004 | 4130 ft | 270 kts | 161° |
| 2026-04-20 20:04 | -2.60017 | -55.04393 | 4127 ft | 271 kts | 161° |
| 2026-04-20 20:04 | -2.61800 | -55.03770 | 4140 ft | 272 kts | 161° |
| 2026-04-20 20:05 | -2.63561 | -55.03150 | 4134 ft | 272 kts | 161° |
| 2026-04-20 20:05 | -2.65344 | -55.02526 | 4135 ft | 272 kts | 161° |
| 2026-04-20 20:05 | -2.67125 | -55.01903 | 4132 ft | 271 kts | 161° |
| 2026-04-20 20:05 | -2.68907 | -55.01282 | 4134 ft | 271 kts | 161° |
| 2026-04-20 20:06 | -2.70688 | -55.00664 | 4142 ft | 271 kts | 161° |
| 2026-04-20 20:06 | -2.72471 | -55.00048 | 4132 ft | 270 kts | 161° |
| 2026-04-20 20:06 | -2.74248 | -54.99436 | 4137 ft | 270 kts | 161° |
| 2026-04-20 20:06 | -2.76020 | -54.98825 | 4148 ft | 270 kts | 161° |
| 2026-04-20 20:07 | -2.77774 | -54.98222 | 4139 ft | 271 kts | 161° |
| 2026-04-20 20:07 | -2.79547 | -54.97608 | 4138 ft | 270 kts | 161° |
| 2026-04-20 20:07 | -2.81326 | -54.96991 | 4137 ft | 270 kts | 161° |
| 2026-04-20 20:07 | -2.83100 | -54.96375 | 4140 ft | 268 kts | 161° |
| 2026-04-20 20:08 | -2.84861 | -54.95764 | 4132 ft | 268 kts | 161° |
| 2026-04-20 20:08 | -2.86628 | -54.95155 | 4138 ft | 270 kts | 161° |
| 2026-04-20 20:08 | -2.88380 | -54.94552 | 4136 ft | 269 kts | 161° |
| 2026-04-20 20:08 | -2.90134 | -54.93921 | 4135 ft | 268 kts | 155° |
| 2026-04-20 20:09 | -2.91569 | -54.92759 | 4134 ft | 269 kts | 124° |
| 2026-04-20 20:09 | -2.92216 | -54.91022 | 4138 ft | 271 kts | 94° |
| 2026-04-20 20:09 | -2.91881 | -54.89189 | 4137 ft | 272 kts | 63° |
| 2026-04-20 20:09 | -2.90644 | -54.87779 | 4131 ft | 274 kts | 32° |
| 2026-04-20 20:10 | -2.88852 | -54.87198 | 4138 ft | 274 kts | 1° |
| 2026-04-20 20:10 | -2.87008 | -54.87589 | 4138 ft | 273 kts | 336° |
| 2026-04-20 20:10 | -2.85236 | -54.88293 | 4135 ft | 275 kts | 339° |
| 2026-04-20 20:10 | -2.83455 | -54.88917 | 4138 ft | 275 kts | 341° |
| 2026-04-20 20:11 | -2.81635 | -54.89522 | 4139 ft | 275 kts | 341° |
| 2026-04-20 20:11 | -2.79824 | -54.90121 | 4138 ft | 274 kts | 341° |
| 2026-04-20 20:11 | -2.78017 | -54.90723 | 4137 ft | 273 kts | 341° |
| 2026-04-20 20:11 | -2.76218 | -54.91328 | 4149 ft | 272 kts | 341° |
| 2026-04-20 20:12 | -2.74425 | -54.91935 | 4137 ft | 272 kts | 341° |
| 2026-04-20 20:12 | -2.72632 | -54.92547 | 4133 ft | 272 kts | 341° |
| 2026-04-20 20:12 | -2.70841 | -54.93165 | 4131 ft | 272 kts | 341° |
| 2026-04-20 20:13 | -2.67259 | -54.94404 | 4133 ft | 274 kts | 340° |
| 2026-04-20 20:13 | -2.65466 | -54.95026 | 4128 ft | 273 kts | 340° |
| 2026-04-20 20:13 | -2.63693 | -54.95642 | 4126 ft | 273 kts | 340° |
| 2026-04-20 20:13 | -2.61898 | -54.96265 | 4133 ft | 274 kts | 340° |
| 2026-04-20 20:14 | -2.60098 | -54.96887 | 4129 ft | 273 kts | 341° |
| 2026-04-20 20:14 | -2.58302 | -54.97507 | 4119 ft | 273 kts | 340° |
| 2026-04-20 20:14 | -2.56511 | -54.98127 | 4138 ft | 272 kts | 340° |
| 2026-04-20 20:14 | -2.54719 | -54.98761 | 4126 ft | 272 kts | 335° |
| 2026-04-20 20:15 | -2.53188 | -54.99846 | 4131 ft | 271 kts | 310° |
| 2026-04-20 20:15 | -2.52278 | -55.01474 | 4127 ft | 270 kts | 284° |
| 2026-04-20 20:15 | -2.52146 | -55.03325 | 4130 ft | 269 kts | 260° |
| 2026-04-20 20:15 | -2.52792 | -55.05037 | 4135 ft | 268 kts | 236° |
| 2026-04-20 20:16 | -2.54114 | -55.06334 | 4129 ft | 269 kts | 210° |
| 2026-04-20 20:16 | -2.55869 | -55.06947 | 4133 ft | 269 kts | 186° |
| 2026-04-20 20:16 | -2.57727 | -55.06764 | 4139 ft | 271 kts | 164° |
| 2026-04-20 20:16 | -2.59530 | -55.06197 | 4142 ft | 271 kts | 161° |
| 2026-04-20 20:17 | -2.61316 | -55.05579 | 4134 ft | 272 kts | 161° |
| 2026-04-20 20:17 | -2.63098 | -55.04944 | 4135 ft | 272 kts | 160° |
| 2026-04-20 20:17 | -2.64879 | -55.04305 | 4133 ft | 272 kts | 159° |
| 2026-04-20 20:17 | -2.66486 | -55.03337 | 4147 ft | 272 kts | 136° |
| 2026-04-20 20:18 | -2.67529 | -55.01804 | 4144 ft | 273 kts | 110° |
| 2026-04-20 20:18 | -2.67824 | -54.99941 | 4139 ft | 273 kts | 85° |
| 2026-04-20 20:18 | -2.67294 | -54.98132 | 4134 ft | 273 kts | 60° |
| 2026-04-20 20:18 | -2.66039 | -54.96724 | 4143 ft | 273 kts | 34° |
| 2026-04-20 20:19 | -2.64305 | -54.96001 | 4134 ft | 273 kts | 8° |
| 2026-04-20 20:19 | -2.62427 | -54.96088 | 4127 ft | 272 kts | 344° |
| 2026-04-20 20:19 | -2.60614 | -54.96648 | 4071 ft | 272 kts | 341° |
| 2026-04-20 20:19 | -2.58846 | -54.97251 | 4022 ft | 271 kts | 340° |
| 2026-04-20 20:20 | -2.57054 | -54.97861 | 4021 ft | 272 kts | 341° |
| 2026-04-20 20:20 | -2.55283 | -54.98485 | 4013 ft | 265 kts | 342° |
| 2026-04-20 20:20 | -2.53545 | -54.98863 | 4013 ft | 247 kts | 353° |
| 2026-04-20 20:20 | -2.51886 | -54.98892 | 4019 ft | 231 kts | 5° |
| 2026-04-20 20:21 | -2.50364 | -54.98619 | 4016 ft | 215 kts | 16° |
| 2026-04-20 20:21 | -2.48987 | -54.98102 | 4014 ft | 210 kts | 27° |
| 2026-04-20 20:21 | -2.47738 | -54.97360 | 4014 ft | 208 kts | 37° |
| 2026-04-20 20:21 | -2.46633 | -54.96416 | 3954 ft | 210 kts | 46° |
| 2026-04-20 20:22 | -2.45997 | -54.95700 | 3762 ft | 206 kts | 52° |
| 2026-04-20 20:22 | -2.44998 | -54.94080 | 3132 ft | 203 kts | 66° |
| 2026-04-20 20:22 | -2.44533 | -54.92794 | 2773 ft | 196 kts | 76° |
| 2026-04-20 20:22 | -2.44250 | -54.91468 | 2398 ft | 192 kts | 79° |
| 2026-04-20 20:23 | -2.44027 | -54.90179 | 2120 ft | 185 kts | 81° |
| 2026-04-20 20:23 | -2.43820 | -54.88931 | 1858 ft | 176 kts | 81° |
| 2026-04-20 20:23 | -2.43631 | -54.87779 | 1659 ft | 159 kts | 81° |
| 2026-04-20 20:23 | -2.43458 | -54.86722 | 1434 ft | 150 kts | 81° |
| 2026-04-20 20:24 | -2.43291 | -54.85703 | 1234 ft | 147 kts | 81° |
| 2026-04-20 20:24 | -2.43128 | -54.84705 | 1045 ft | 145 kts | 81° |
| 2026-04-20 20:24 | -2.42969 | -54.83713 | 872 ft | 144 kts | 79° |
| 2026-04-20 20:24 | -2.42808 | -54.82738 | 680 ft | 144 kts | 79° |
| 2026-04-20 20:25 | -2.42647 | -54.81752 | 485 ft | 144 kts | 78° |
| 2026-04-20 20:25 | -2.42485 | -54.80763 | 306 ft | 144 kts | 79° |
| 2026-04-20 20:25 | -2.42325 | -54.79789 | 187 ft | 134 kts | 78° |
| 2026-04-20 20:25 | -2.42203 | -54.79055 | 192 ft | 67 kts | 81° |
| 2026-04-20 20:26 | -2.42164 | -54.78811 | 192 ft | 12 kts | 81° |
| 2026-04-20 20:26 | -2.42178 | -54.78746 | 198 ft | 9 kts | 141° |
| 2026-04-20 20:26 | -2.42214 | -54.78716 | 190 ft | 8 kts | 139° |
| 2026-04-20 20:26 | -2.42252 | -54.78681 | 203 ft | 7 kts | 137° |
| 2026-04-20 20:27 | -2.42282 | -54.78652 | 190 ft | 5 kts | 137° |
| 2026-04-20 20:27 | -2.42305 | -54.78631 | 199 ft | 4 kts | 136° |
| 2026-04-20 20:27 | -2.42320 | -54.78617 | 201 ft | 3 kts | 136° |
| 2026-04-20 20:27 | -2.42352 | -54.78586 | 197 ft | 7 kts | 135° |
| 2026-04-20 20:28 | -2.42353 | -54.78563 | 200 ft | 5 kts | 75° |
| 2026-04-20 20:28 | -2.42370 | -54.78538 | 195 ft | 3 kts | 141° |
| 2026-04-20 20:28 | -2.42383 | -54.78528 | 191 ft | 2 kts | 142° |
| 2026-04-20 20:28 | -2.42385 | -54.78526 | 191 ft | 0 kts | 142° |